sensor_id;sensor_type;location;lat;lon;timestamp;P1;durP1;ratioP1;P2;durP2;ratioP2
77170;SDS011;66144;50.020;14.422;2023-02-28T00:03:36;11.98;;;5.13;;
77170;SDS011;66144;50.020;14.422;2023-02-28T00:06:03;9.15;;;5.45;;
77170;SDS011;66144;50.020;14.422;2023-02-28T00:08:32;10.30;;;5.35;;
77170;SDS011;66144;50.020;14.422;2023-02-28T00:11:01;9.13;;;5.60;;
77170;SDS011;66144;50.020;14.422;2023-02-28T00:13:27;10.52;;;5.97;;
77170;SDS011;66144;50.020;14.422;2023-02-28T00:16:03;12.45;;;5.88;;
77170;SDS011;66144;50.020;14.422;2023-02-28T00:18:30;10.77;;;5.25;;
77170;SDS011;66144;50.020;14.422;2023-02-28T00:20:56;10.50;;;5.78;;
77170;SDS011;66144;50.020;14.422;2023-02-28T00:25:47;11.50;;;4.70;;
77170;SDS011;66144;50.020;14.422;2023-02-28T00:28:13;12.35;;;5.25;;
77170;SDS011;66144;50.020;14.422;2023-02-28T00:30:41;10.68;;;5.45;;
77170;SDS011;66144;50.020;14.422;2023-02-28T00:33:07;11.18;;;5.38;;
77170;SDS011;66144;50.020;14.422;2023-02-28T00:35:33;11.50;;;6.07;;
77170;SDS011;66144;50.020;14.422;2023-02-28T00:37:58;8.73;;;4.60;;
77170;SDS011;66144;50.020;14.422;2023-02-28T00:40:23;11.10;;;5.40;;
77170;SDS011;66144;50.020;14.422;2023-02-28T00:42:49;9.70;;;5.47;;
77170;SDS011;66144;50.020;14.422;2023-02-28T00:45:14;13.00;;;5.63;;
77170;SDS011;66144;50.020;14.422;2023-02-28T00:47:40;9.50;;;5.03;;
77170;SDS011;66144;50.020;14.422;2023-02-28T00:50:05;15.57;;;6.20;;
77170;SDS011;66144;50.020;14.422;2023-02-28T00:52:31;11.40;;;6.20;;
77170;SDS011;66144;50.020;14.422;2023-02-28T00:54:57;12.30;;;6.60;;
77170;SDS011;66144;50.020;14.422;2023-02-28T00:57:22;10.65;;;6.45;;
77170;SDS011;66144;50.020;14.422;2023-02-28T00:59:48;10.30;;;5.47;;
77170;SDS011;66144;50.020;14.422;2023-02-28T01:02:14;11.13;;;5.32;;
77170;SDS011;66144;50.020;14.422;2023-02-28T01:04:39;11.23;;;5.57;;
77170;SDS011;66144;50.020;14.422;2023-02-28T01:07:04;12.25;;;6.53;;
77170;SDS011;66144;50.020;14.422;2023-02-28T01:09:30;11.40;;;5.60;;
77170;SDS011;66144;50.020;14.422;2023-02-28T01:11:55;10.98;;;6.03;;
77170;SDS011;66144;50.020;14.422;2023-02-28T01:14:20;10.77;;;5.72;;
77170;SDS011;66144;50.020;14.422;2023-02-28T01:16:46;10.18;;;6.13;;
77170;SDS011;66144;50.020;14.422;2023-02-28T01:19:11;12.30;;;6.50;;
77170;SDS011;66144;50.020;14.422;2023-02-28T01:21:37;11.48;;;6.28;;
77170;SDS011;66144;50.020;14.422;2023-02-28T01:24:03;11.30;;;7.10;;
77170;SDS011;66144;50.020;14.422;2023-02-28T01:26:29;13.75;;;6.22;;
77170;SDS011;66144;50.020;14.422;2023-02-28T01:31:21;10.55;;;6.20;;
77170;SDS011;66144;50.020;14.422;2023-02-28T01:33:47;10.75;;;5.85;;
77170;SDS011;66144;50.020;14.422;2023-02-28T01:36:14;12.93;;;6.75;;
77170;SDS011;66144;50.020;14.422;2023-02-28T01:38:42;11.20;;;6.75;;
77170;SDS011;66144;50.020;14.422;2023-02-28T01:41:08;13.50;;;6.63;;
77170;SDS011;66144;50.020;14.422;2023-02-28T01:46:10;13.23;;;7.28;;
77170;SDS011;66144;50.020;14.422;2023-02-28T01:51:49;9.43;;;6.68;;
77170;SDS011;66144;50.020;14.422;2023-02-28T01:54:25;11.18;;;6.55;;
77170;SDS011;66144;50.020;14.422;2023-02-28T01:57:10;12.02;;;5.93;;
77170;SDS011;66144;50.020;14.422;2023-02-28T01:59:42;11.50;;;7.28;;
77170;SDS011;66144;50.020;14.422;2023-02-28T02:02:15;10.68;;;6.38;;
77170;SDS011;66144;50.020;14.422;2023-02-28T02:04:53;14.90;;;6.70;;
77170;SDS011;66144;50.020;14.422;2023-02-28T02:07:22;14.20;;;8.05;;
77170;SDS011;66144;50.020;14.422;2023-02-28T02:09:48;15.43;;;7.00;;
77170;SDS011;66144;50.020;14.422;2023-02-28T02:15:29;12.40;;;6.05;;
77170;SDS011;66144;50.020;14.422;2023-02-28T02:34:38;12.15;;;5.60;;
77170;SDS011;66144;50.020;14.422;2023-02-28T02:42:42;12.20;;;6.38;;
77170;SDS011;66144;50.020;14.422;2023-02-28T02:45:24;12.13;;;5.75;;
77170;SDS011;66144;50.020;14.422;2023-02-28T02:48:00;10.45;;;5.10;;
77170;SDS011;66144;50.020;14.422;2023-02-28T02:50:38;10.93;;;6.22;;
77170;SDS011;66144;50.020;14.422;2023-02-28T02:53:07;10.85;;;6.20;;
77170;SDS011;66144;50.020;14.422;2023-02-28T02:55:37;11.80;;;5.82;;
77170;SDS011;66144;50.020;14.422;2023-02-28T02:58:07;11.23;;;5.65;;
77170;SDS011;66144;50.020;14.422;2023-02-28T03:00:39;10.60;;;5.38;;
77170;SDS011;66144;50.020;14.422;2023-02-28T03:03:08;8.88;;;5.00;;
77170;SDS011;66144;50.020;14.422;2023-02-28T03:05:39;12.35;;;6.40;;
77170;SDS011;66144;50.020;14.422;2023-02-28T03:08:09;10.98;;;4.93;;
77170;SDS011;66144;50.020;14.422;2023-02-28T03:10:37;8.98;;;5.75;;
77170;SDS011;66144;50.020;14.422;2023-02-28T03:18:44;11.88;;;5.90;;
77170;SDS011;66144;50.020;14.422;2023-02-28T03:21:16;9.48;;;4.78;;
77170;SDS011;66144;50.020;14.422;2023-02-28T03:23:50;9.75;;;4.97;;
77170;SDS011;66144;50.020;14.422;2023-02-28T03:26:27;9.20;;;4.68;;
77170;SDS011;66144;50.020;14.422;2023-02-28T03:34:33;11.25;;;5.07;;
77170;SDS011;66144;50.020;14.422;2023-02-28T03:37:04;11.57;;;5.78;;
77170;SDS011;66144;50.020;14.422;2023-02-28T03:39:39;9.82;;;5.28;;
77170;SDS011;66144;50.020;14.422;2023-02-28T03:42:11;9.85;;;5.40;;
77170;SDS011;66144;50.020;14.422;2023-02-28T03:44:51;10.45;;;5.35;;
77170;SDS011;66144;50.020;14.422;2023-02-28T03:47:32;10.98;;;6.22;;
77170;SDS011;66144;50.020;14.422;2023-02-28T03:50:07;8.82;;;5.00;;
77170;SDS011;66144;50.020;14.422;2023-02-28T03:52:39;10.52;;;5.10;;
77170;SDS011;66144;50.020;14.422;2023-02-28T03:55:11;9.40;;;5.22;;
77170;SDS011;66144;50.020;14.422;2023-02-28T03:57:43;15.98;;;6.35;;
77170;SDS011;66144;50.020;14.422;2023-02-28T04:00:19;9.45;;;4.75;;
77170;SDS011;66144;50.020;14.422;2023-02-28T04:02:49;9.30;;;5.25;;
77170;SDS011;66144;50.020;14.422;2023-02-28T04:05:17;9.70;;;5.63;;
77170;SDS011;66144;50.020;14.422;2023-02-28T04:07:44;9.65;;;5.63;;
77170;SDS011;66144;50.020;14.422;2023-02-28T04:10:09;10.52;;;5.72;;
77170;SDS011;66144;50.020;14.422;2023-02-28T04:12:36;10.77;;;5.80;;
77170;SDS011;66144;50.020;14.422;2023-02-28T04:15:02;9.77;;;5.32;;
77170;SDS011;66144;50.020;14.422;2023-02-28T04:17:27;9.68;;;5.60;;
77170;SDS011;66144;50.020;14.422;2023-02-28T04:19:54;9.80;;;6.05;;
77170;SDS011;66144;50.020;14.422;2023-02-28T04:22:21;10.25;;;5.05;;
77170;SDS011;66144;50.020;14.422;2023-02-28T04:24:47;9.90;;;6.28;;
77170;SDS011;66144;50.020;14.422;2023-02-28T04:27:12;10.45;;;6.10;;
77170;SDS011;66144;50.020;14.422;2023-02-28T04:29:37;11.00;;;5.47;;
77170;SDS011;66144;50.020;14.422;2023-02-28T04:32:03;10.90;;;5.80;;
77170;SDS011;66144;50.020;14.422;2023-02-28T04:34:30;9.98;;;6.40;;
77170;SDS011;66144;50.020;14.422;2023-02-28T04:36:56;10.63;;;5.60;;
77170;SDS011;66144;50.020;14.422;2023-02-28T04:39:22;11.18;;;6.22;;
77170;SDS011;66144;50.020;14.422;2023-02-28T04:41:48;9.35;;;6.05;;
77170;SDS011;66144;50.020;14.422;2023-02-28T04:44:14;12.18;;;5.85;;
77170;SDS011;66144;50.020;14.422;2023-02-28T04:46:41;11.40;;;5.60;;
77170;SDS011;66144;50.020;14.422;2023-02-28T04:49:08;10.85;;;6.50;;
77170;SDS011;66144;50.020;14.422;2023-02-28T04:51:36;11.38;;;5.35;;
77170;SDS011;66144;50.020;14.422;2023-02-28T04:54:02;11.32;;;6.45;;
77170;SDS011;66144;50.020;14.422;2023-02-28T04:56:28;10.88;;;5.95;;
77170;SDS011;66144;50.020;14.422;2023-02-28T04:58:53;9.43;;;5.80;;
77170;SDS011;66144;50.020;14.422;2023-02-28T05:01:23;13.57;;;6.55;;
77170;SDS011;66144;50.020;14.422;2023-02-28T05:03:51;11.48;;;5.78;;
77170;SDS011;66144;50.020;14.422;2023-02-28T05:06:19;11.88;;;6.32;;
77170;SDS011;66144;50.020;14.422;2023-02-28T05:08:45;12.27;;;6.90;;
77170;SDS011;66144;50.020;14.422;2023-02-28T05:11:18;11.60;;;6.85;;
77170;SDS011;66144;50.020;14.422;2023-02-28T05:13:44;10.18;;;5.97;;
77170;SDS011;66144;50.020;14.422;2023-02-28T05:16:09;14.38;;;6.28;;
77170;SDS011;66144;50.020;14.422;2023-02-28T05:18:35;14.32;;;6.95;;
77170;SDS011;66144;50.020;14.422;2023-02-28T05:21:01;11.75;;;6.97;;
77170;SDS011;66144;50.020;14.422;2023-02-28T05:23:27;11.73;;;6.55;;
77170;SDS011;66144;50.020;14.422;2023-02-28T05:25:52;12.52;;;6.82;;
77170;SDS011;66144;50.020;14.422;2023-02-28T05:28:19;11.10;;;6.75;;
77170;SDS011;66144;50.020;14.422;2023-02-28T05:30:45;13.70;;;7.68;;
77170;SDS011;66144;50.020;14.422;2023-02-28T05:33:11;13.80;;;7.55;;
77170;SDS011;66144;50.020;14.422;2023-02-28T05:35:41;12.43;;;6.75;;
77170;SDS011;66144;50.020;14.422;2023-02-28T05:38:07;11.85;;;6.63;;
77170;SDS011;66144;50.020;14.422;2023-02-28T05:40:33;13.25;;;6.45;;
77170;SDS011;66144;50.020;14.422;2023-02-28T05:42:59;12.35;;;6.78;;
77170;SDS011;66144;50.020;14.422;2023-02-28T05:45:27;12.30;;;6.30;;
77170;SDS011;66144;50.020;14.422;2023-02-28T05:47:53;10.75;;;5.97;;
77170;SDS011;66144;50.020;14.422;2023-02-28T05:50:19;10.13;;;5.68;;
77170;SDS011;66144;50.020;14.422;2023-02-28T05:52:48;10.70;;;5.57;;
77170;SDS011;66144;50.020;14.422;2023-02-28T05:55:14;14.18;;;7.07;;
77170;SDS011;66144;50.020;14.422;2023-02-28T05:57:40;12.20;;;6.60;;
77170;SDS011;66144;50.020;14.422;2023-02-28T06:00:05;12.18;;;6.03;;
77170;SDS011;66144;50.020;14.422;2023-02-28T06:02:31;10.75;;;6.50;;
77170;SDS011;66144;50.020;14.422;2023-02-28T06:04:56;10.75;;;6.07;;
77170;SDS011;66144;50.020;14.422;2023-02-28T06:07:22;13.20;;;6.82;;
77170;SDS011;66144;50.020;14.422;2023-02-28T06:09:47;11.45;;;6.65;;
77170;SDS011;66144;50.020;14.422;2023-02-28T06:12:13;11.57;;;6.55;;
77170;SDS011;66144;50.020;14.422;2023-02-28T06:14:38;11.73;;;6.35;;
77170;SDS011;66144;50.020;14.422;2023-02-28T06:17:04;14.57;;;7.60;;
77170;SDS011;66144;50.020;14.422;2023-02-28T06:19:29;16.02;;;6.55;;
77170;SDS011;66144;50.020;14.422;2023-02-28T06:21:56;13.38;;;6.50;;
77170;SDS011;66144;50.020;14.422;2023-02-28T06:24:22;12.52;;;6.30;;
77170;SDS011;66144;50.020;14.422;2023-02-28T06:26:49;11.00;;;6.03;;
77170;SDS011;66144;50.020;14.422;2023-02-28T06:29:15;13.18;;;7.47;;
77170;SDS011;66144;50.020;14.422;2023-02-28T06:31:43;14.43;;;6.75;;
77170;SDS011;66144;50.020;14.422;2023-02-28T06:34:12;12.73;;;6.88;;
77170;SDS011;66144;50.020;14.422;2023-02-28T06:36:38;13.18;;;7.00;;
77170;SDS011;66144;50.020;14.422;2023-02-28T06:39:05;13.68;;;6.80;;
77170;SDS011;66144;50.020;14.422;2023-02-28T06:41:30;11.38;;;6.85;;
77170;SDS011;66144;50.020;14.422;2023-02-28T06:43:56;12.98;;;6.75;;
77170;SDS011;66144;50.020;14.422;2023-02-28T06:46:22;12.15;;;6.90;;
77170;SDS011;66144;50.020;14.422;2023-02-28T06:48:48;14.43;;;7.68;;
77170;SDS011;66144;50.020;14.422;2023-02-28T06:51:15;12.55;;;6.72;;
77170;SDS011;66144;50.020;14.422;2023-02-28T06:53:45;14.00;;;7.18;;
77170;SDS011;66144;50.020;14.422;2023-02-28T06:56:12;10.38;;;6.45;;
77170;SDS011;66144;50.020;14.422;2023-02-28T06:58:38;10.57;;;6.50;;
77170;SDS011;66144;50.020;14.422;2023-02-28T07:01:05;13.10;;;7.50;;
77170;SDS011;66144;50.020;14.422;2023-02-28T07:03:31;10.85;;;6.65;;
77170;SDS011;66144;50.020;14.422;2023-02-28T07:05:57;11.75;;;7.18;;
77170;SDS011;66144;50.020;14.422;2023-02-28T07:08:23;13.80;;;7.50;;
77170;SDS011;66144;50.020;14.422;2023-02-28T07:10:53;11.88;;;6.00;;
77170;SDS011;66144;50.020;14.422;2023-02-28T07:13:21;11.43;;;5.93;;
77170;SDS011;66144;50.020;14.422;2023-02-28T07:16:01;13.07;;;7.07;;
77170;SDS011;66144;50.020;14.422;2023-02-28T07:18:30;13.85;;;7.72;;
77170;SDS011;66144;50.020;14.422;2023-02-28T07:23:22;10.32;;;5.85;;
77170;SDS011;66144;50.020;14.422;2023-02-28T07:25:48;11.65;;;6.47;;
77170;SDS011;66144;50.020;14.422;2023-02-28T07:28:14;12.73;;;6.53;;
77170;SDS011;66144;50.020;14.422;2023-02-28T07:30:40;12.43;;;6.57;;
77170;SDS011;66144;50.020;14.422;2023-02-28T07:35:31;11.32;;;6.70;;
77170;SDS011;66144;50.020;14.422;2023-02-28T07:37:57;12.57;;;7.15;;
77170;SDS011;66144;50.020;14.422;2023-02-28T07:40:23;12.43;;;6.32;;
77170;SDS011;66144;50.020;14.422;2023-02-28T07:42:49;12.18;;;6.88;;
77170;SDS011;66144;50.020;14.422;2023-02-28T07:47:41;10.98;;;6.13;;
77170;SDS011;66144;50.020;14.422;2023-02-28T07:50:07;11.88;;;6.50;;
77170;SDS011;66144;50.020;14.422;2023-02-28T07:52:36;13.70;;;8.48;;
77170;SDS011;66144;50.020;14.422;2023-02-28T07:55:02;11.07;;;6.28;;
77170;SDS011;66144;50.020;14.422;2023-02-28T07:57:28;13.05;;;6.18;;
77170;SDS011;66144;50.020;14.422;2023-02-28T07:59:53;11.10;;;6.13;;
77170;SDS011;66144;50.020;14.422;2023-02-28T08:04:44;11.80;;;6.40;;
77170;SDS011;66144;50.020;14.422;2023-02-28T08:07:10;12.70;;;6.30;;
77170;SDS011;66144;50.020;14.422;2023-02-28T08:09:38;13.48;;;6.05;;
77170;SDS011;66144;50.020;14.422;2023-02-28T08:12:04;12.25;;;7.50;;
77170;SDS011;66144;50.020;14.422;2023-02-28T08:14:30;11.13;;;5.95;;
77170;SDS011;66144;50.020;14.422;2023-02-28T08:19:21;14.25;;;7.00;;
77170;SDS011;66144;50.020;14.422;2023-02-28T08:24:11;11.83;;;6.17;;
77170;SDS011;66144;50.020;14.422;2023-02-28T08:26:39;12.82;;;6.90;;
77170;SDS011;66144;50.020;14.422;2023-02-28T08:31:30;12.82;;;7.50;;
77170;SDS011;66144;50.020;14.422;2023-02-28T08:33:55;10.45;;;6.93;;
77170;SDS011;66144;50.020;14.422;2023-02-28T08:36:24;12.55;;;6.95;;
77170;SDS011;66144;50.020;14.422;2023-02-28T08:38:51;10.60;;;6.47;;
77170;SDS011;66144;50.020;14.422;2023-02-28T08:43:41;11.57;;;6.70;;
77170;SDS011;66144;50.020;14.422;2023-02-28T08:46:07;12.20;;;5.68;;
77170;SDS011;66144;50.020;14.422;2023-02-28T08:51:00;9.75;;;5.68;;
77170;SDS011;66144;50.020;14.422;2023-02-28T08:53:30;12.52;;;6.70;;
77170;SDS011;66144;50.020;14.422;2023-02-28T08:55:57;11.07;;;6.57;;
77170;SDS011;66144;50.020;14.422;2023-02-28T08:58:27;12.93;;;6.65;;
77170;SDS011;66144;50.020;14.422;2023-02-28T09:00:53;15.00;;;6.20;;
77170;SDS011;66144;50.020;14.422;2023-02-28T09:03:20;10.80;;;6.15;;
77170;SDS011;66144;50.020;14.422;2023-02-28T09:08:21;10.75;;;6.10;;
77170;SDS011;66144;50.020;14.422;2023-02-28T09:10:48;13.60;;;6.28;;
77170;SDS011;66144;50.020;14.422;2023-02-28T09:15:39;11.90;;;6.67;;
77170;SDS011;66144;50.020;14.422;2023-02-28T09:20:30;12.23;;;6.27;;
77170;SDS011;66144;50.020;14.422;2023-02-28T09:25:20;10.10;;;5.33;;
77170;SDS011;66144;50.020;14.422;2023-02-28T09:30:11;12.17;;;5.93;;
77170;SDS011;66144;50.020;14.422;2023-02-28T09:32:37;10.27;;;6.13;;
77170;SDS011;66144;50.020;14.422;2023-02-28T09:37:28;10.05;;;5.15;;
77170;SDS011;66144;50.020;14.422;2023-02-28T09:39:55;10.82;;;6.68;;
77170;SDS011;66144;50.020;14.422;2023-02-28T09:44:51;9.50;;;6.60;;
77170;SDS011;66144;50.020;14.422;2023-02-28T09:52:54;11.15;;;6.72;;
77170;SDS011;66144;50.020;14.422;2023-02-28T10:00:59;11.50;;;6.75;;
77170;SDS011;66144;50.020;14.422;2023-02-28T10:06:46;12.90;;;7.45;;
77170;SDS011;66144;50.020;14.422;2023-02-28T10:09:23;12.80;;;7.18;;
77170;SDS011;66144;50.020;14.422;2023-02-28T10:11:52;11.05;;;6.20;;
77170;SDS011;66144;50.020;14.422;2023-02-28T10:14:22;10.93;;;6.57;;
77170;SDS011;66144;50.020;14.422;2023-02-28T10:27:17;9.48;;;6.75;;
77170;SDS011;66144;50.020;14.422;2023-02-28T10:29:44;12.20;;;7.55;;
77170;SDS011;66144;50.020;14.422;2023-02-28T10:32:18;12.60;;;7.72;;
77170;SDS011;66144;50.020;14.422;2023-02-28T10:34:55;12.75;;;7.68;;
77170;SDS011;66144;50.020;14.422;2023-02-28T10:37:24;10.13;;;6.68;;
77170;SDS011;66144;50.020;14.422;2023-02-28T10:39:49;12.88;;;7.35;;
77170;SDS011;66144;50.020;14.422;2023-02-28T10:42:26;10.82;;;7.20;;
77170;SDS011;66144;50.020;14.422;2023-02-28T10:50:34;10.75;;;7.65;;
77170;SDS011;66144;50.020;14.422;2023-02-28T10:53:24;13.00;;;8.05;;
77170;SDS011;66144;50.020;14.422;2023-02-28T10:56:01;11.02;;;7.68;;
77170;SDS011;66144;50.020;14.422;2023-02-28T10:58:30;13.63;;;8.18;;
77170;SDS011;66144;50.020;14.422;2023-02-28T11:01:10;12.25;;;8.18;;
77170;SDS011;66144;50.020;14.422;2023-02-28T11:03:39;12.15;;;8.13;;
77170;SDS011;66144;50.020;14.422;2023-02-28T11:06:06;9.95;;;7.53;;
77170;SDS011;66144;50.020;14.422;2023-02-28T11:08:43;12.80;;;8.65;;
77170;SDS011;66144;50.020;14.422;2023-02-28T11:11:11;12.20;;;8.43;;
77170;SDS011;66144;50.020;14.422;2023-02-28T11:13:37;10.35;;;7.75;;
77170;SDS011;66144;50.020;14.422;2023-02-28T11:16:06;11.50;;;7.70;;
77170;SDS011;66144;50.020;14.422;2023-02-28T11:18:50;10.85;;;8.68;;
77170;SDS011;66144;50.020;14.422;2023-02-28T11:21:26;11.50;;;7.60;;
77170;SDS011;66144;50.020;14.422;2023-02-28T11:23:56;10.88;;;7.13;;
77170;SDS011;66144;50.020;14.422;2023-02-28T11:26:42;10.73;;;7.68;;
77170;SDS011;66144;50.020;14.422;2023-02-28T11:29:21;9.45;;;7.30;;
77170;SDS011;66144;50.020;14.422;2023-02-28T11:32:00;11.27;;;7.53;;
77170;SDS011;66144;50.020;14.422;2023-02-28T11:34:28;11.82;;;7.72;;
77170;SDS011;66144;50.020;14.422;2023-02-28T11:36:55;12.65;;;7.38;;
77170;SDS011;66144;50.020;14.422;2023-02-28T11:39:22;10.05;;;7.22;;
77170;SDS011;66144;50.020;14.422;2023-02-28T11:44:23;11.10;;;8.07;;
77170;SDS011;66144;50.020;14.422;2023-02-28T11:47:11;9.93;;;7.25;;
77170;SDS011;66144;50.020;14.422;2023-02-28T11:50:04;10.30;;;6.80;;
77170;SDS011;66144;50.020;14.422;2023-02-28T11:52:54;10.43;;;8.00;;
77170;SDS011;66144;50.020;14.422;2023-02-28T12:01:03;13.68;;;7.63;;
77170;SDS011;66144;50.020;14.422;2023-02-28T12:06:08;10.73;;;8.20;;
77170;SDS011;66144;50.020;14.422;2023-02-28T12:11:51;10.50;;;7.22;;
77170;SDS011;66144;50.020;14.422;2023-02-28T12:14:29;10.13;;;7.53;;
77170;SDS011;66144;50.020;14.422;2023-02-28T12:27:24;9.98;;;6.53;;
77170;SDS011;66144;50.020;14.422;2023-02-28T12:40:27;10.07;;;8.68;;
77170;SDS011;66144;50.020;14.422;2023-02-28T12:43:05;10.48;;;7.53;;
77170;SDS011;66144;50.020;14.422;2023-02-28T12:48:09;12.27;;;7.82;;
77170;SDS011;66144;50.020;14.422;2023-02-28T12:50:39;12.27;;;8.05;;
77170;SDS011;66144;50.020;14.422;2023-02-28T12:53:18;10.43;;;7.28;;
77170;SDS011;66144;50.020;14.422;2023-02-28T12:58:42;10.63;;;7.93;;
77170;SDS011;66144;50.020;14.422;2023-02-28T13:06:45;11.00;;;7.70;;
77170;SDS011;66144;50.020;14.422;2023-02-28T13:09:17;11.23;;;7.20;;
77170;SDS011;66144;50.020;14.422;2023-02-28T13:11:50;9.55;;;7.28;;
77170;SDS011;66144;50.020;14.422;2023-02-28T13:19:33;11.65;;;7.63;;
77170;SDS011;66144;50.020;14.422;2023-02-28T13:22:00;10.27;;;7.40;;
77170;SDS011;66144;50.020;14.422;2023-02-28T13:24:37;12.50;;;6.95;;
77170;SDS011;66144;50.020;14.422;2023-02-28T13:29:41;10.70;;;7.65;;
77170;SDS011;66144;50.020;14.422;2023-02-28T13:34:38;11.63;;;7.85;;
77170;SDS011;66144;50.020;14.422;2023-02-28T13:39:57;10.70;;;7.95;;
77170;SDS011;66144;50.020;14.422;2023-02-28T13:47:42;11.57;;;7.10;;
77170;SDS011;66144;50.020;14.422;2023-02-28T13:55:41;15.30;;;7.57;;
77170;SDS011;66144;50.020;14.422;2023-02-28T14:06:23;15.55;;;7.13;;
77170;SDS011;66144;50.020;14.422;2023-02-28T14:09:03;11.90;;;7.03;;
77170;SDS011;66144;50.020;14.422;2023-02-28T14:11:43;10.43;;;6.32;;
77170;SDS011;66144;50.020;14.422;2023-02-28T14:14:53;12.48;;;7.32;;
77170;SDS011;66144;50.020;14.422;2023-02-28T14:17:05;14.73;;;8.73;;
77170;SDS011;66144;50.020;14.422;2023-02-28T14:19:34;10.93;;;6.55;;
77170;SDS011;66144;50.020;14.422;2023-02-28T14:25:07;11.60;;;6.97;;
77170;SDS011;66144;50.020;14.422;2023-02-28T14:33:33;13.27;;;7.53;;
77170;SDS011;66144;50.020;14.422;2023-02-28T14:39:04;12.13;;;6.85;;
77170;SDS011;66144;50.020;14.422;2023-02-28T14:41:33;13.38;;;6.88;;
77170;SDS011;66144;50.020;14.422;2023-02-28T14:44:02;12.13;;;7.40;;
77170;SDS011;66144;50.020;14.422;2023-02-28T14:46:38;12.25;;;6.97;;
77170;SDS011;66144;50.020;14.422;2023-02-28T14:49:05;12.90;;;7.32;;
77170;SDS011;66144;50.020;14.422;2023-02-28T14:51:37;11.88;;;7.15;;
77170;SDS011;66144;50.020;14.422;2023-02-28T14:54:03;13.05;;;7.13;;
77170;SDS011;66144;50.020;14.422;2023-02-28T14:56:48;12.10;;;7.57;;
77170;SDS011;66144;50.020;14.422;2023-02-28T14:59:23;14.15;;;6.78;;
77170;SDS011;66144;50.020;14.422;2023-02-28T15:01:48;12.70;;;6.93;;
77170;SDS011;66144;50.020;14.422;2023-02-28T15:04:18;14.27;;;7.30;;
77170;SDS011;66144;50.020;14.422;2023-02-28T15:09:35;11.75;;;6.60;;
77170;SDS011;66144;50.020;14.422;2023-02-28T15:12:00;13.50;;;7.03;;
77170;SDS011;66144;50.020;14.422;2023-02-28T15:14:26;9.77;;;6.63;;
77170;SDS011;66144;50.020;14.422;2023-02-28T15:16:56;15.65;;;7.65;;
77170;SDS011;66144;50.020;14.422;2023-02-28T15:19:29;11.18;;;6.95;;
77170;SDS011;66144;50.020;14.422;2023-02-28T15:22:02;13.35;;;7.57;;
77170;SDS011;66144;50.020;14.422;2023-02-28T15:24:42;12.98;;;7.07;;
77170;SDS011;66144;50.020;14.422;2023-02-28T15:27:13;11.90;;;7.22;;
77170;SDS011;66144;50.020;14.422;2023-02-28T15:29:55;10.85;;;6.55;;
77170;SDS011;66144;50.020;14.422;2023-02-28T15:32:33;11.57;;;6.50;;
77170;SDS011;66144;50.020;14.422;2023-02-28T15:37:57;11.38;;;7.07;;
77170;SDS011;66144;50.020;14.422;2023-02-28T15:46:08;13.52;;;7.43;;
77170;SDS011;66144;50.020;14.422;2023-02-28T15:48:29;12.73;;;8.32;;
77170;SDS011;66144;50.020;14.422;2023-02-28T15:51:01;12.70;;;7.32;;
77170;SDS011;66144;50.020;14.422;2023-02-28T15:53:36;15.68;;;8.02;;
77170;SDS011;66144;50.020;14.422;2023-02-28T15:56:05;15.15;;;7.45;;
77170;SDS011;66144;50.020;14.422;2023-02-28T15:58:43;13.85;;;8.98;;
77170;SDS011;66144;50.020;14.422;2023-02-28T16:03:44;13.10;;;8.20;;
77170;SDS011;66144;50.020;14.422;2023-02-28T16:08:58;13.93;;;7.22;;
77170;SDS011;66144;50.020;14.422;2023-02-28T16:13:49;13.68;;;7.55;;
77170;SDS011;66144;50.020;14.422;2023-02-28T16:16:20;20.40;;;9.10;;
77170;SDS011;66144;50.020;14.422;2023-02-28T16:18:47;16.42;;;8.88;;
77170;SDS011;66144;50.020;14.422;2023-02-28T16:23:38;13.47;;;8.07;;
77170;SDS011;66144;50.020;14.422;2023-02-28T16:26:04;16.92;;;9.30;;
77170;SDS011;66144;50.020;14.422;2023-02-28T16:28:32;14.43;;;8.15;;
77170;SDS011;66144;50.020;14.422;2023-02-28T16:31:00;14.35;;;8.27;;
77170;SDS011;66144;50.020;14.422;2023-02-28T16:33:30;12.93;;;8.27;;
77170;SDS011;66144;50.020;14.422;2023-02-28T16:35:56;13.07;;;8.13;;
77170;SDS011;66144;50.020;14.422;2023-02-28T16:40:48;15.27;;;8.90;;
77170;SDS011;66144;50.020;14.422;2023-02-28T16:43:18;15.40;;;9.02;;
77170;SDS011;66144;50.020;14.422;2023-02-28T16:45:47;18.15;;;10.02;;
77170;SDS011;66144;50.020;14.422;2023-02-28T16:50:40;12.88;;;8.65;;
77170;SDS011;66144;50.020;14.422;2023-02-28T16:55:30;13.07;;;7.93;;
77170;SDS011;66144;50.020;14.422;2023-02-28T17:00:23;15.32;;;7.95;;
77170;SDS011;66144;50.020;14.422;2023-02-28T17:02:49;16.15;;;9.43;;
77170;SDS011;66144;50.020;14.422;2023-02-28T17:05:15;18.98;;;9.50;;
77170;SDS011;66144;50.020;14.422;2023-02-28T17:07:42;16.95;;;9.20;;
77170;SDS011;66144;50.020;14.422;2023-02-28T17:10:13;16.38;;;8.65;;
77170;SDS011;66144;50.020;14.422;2023-02-28T17:12:47;16.92;;;8.80;;
77170;SDS011;66144;50.020;14.422;2023-02-28T17:17:39;16.05;;;8.73;;
77170;SDS011;66144;50.020;14.422;2023-02-28T17:20:06;16.42;;;10.02;;
77170;SDS011;66144;50.020;14.422;2023-02-28T17:22:36;16.85;;;9.13;;
77170;SDS011;66144;50.020;14.422;2023-02-28T17:27:27;14.43;;;8.65;;
77170;SDS011;66144;50.020;14.422;2023-02-28T17:32:18;21.03;;;10.20;;
77170;SDS011;66144;50.020;14.422;2023-02-28T17:37:10;13.50;;;8.07;;
77170;SDS011;66144;50.020;14.422;2023-02-28T17:42:01;13.77;;;7.87;;
77170;SDS011;66144;50.020;14.422;2023-02-28T17:46:53;14.57;;;7.90;;
77170;SDS011;66144;50.020;14.422;2023-02-28T17:49:19;17.80;;;9.25;;
77170;SDS011;66144;50.020;14.422;2023-02-28T17:51:45;16.05;;;8.98;;
77170;SDS011;66144;50.020;14.422;2023-02-28T17:54:11;15.18;;;9.80;;
77170;SDS011;66144;50.020;14.422;2023-02-28T17:56:36;16.63;;;8.95;;
77170;SDS011;66144;50.020;14.422;2023-02-28T17:59:02;15.60;;;9.07;;
77170;SDS011;66144;50.020;14.422;2023-02-28T18:03:53;17.33;;;9.30;;
77170;SDS011;66144;50.020;14.422;2023-02-28T18:06:21;18.52;;;9.75;;
77170;SDS011;66144;50.020;14.422;2023-02-28T18:08:49;14.52;;;8.60;;
77170;SDS011;66144;50.020;14.422;2023-02-28T18:11:16;18.77;;;9.55;;
77170;SDS011;66144;50.020;14.422;2023-02-28T18:13:43;13.13;;;7.88;;
77170;SDS011;66144;50.020;14.422;2023-02-28T18:16:10;16.05;;;8.82;;
77170;SDS011;66144;50.020;14.422;2023-02-28T18:18:36;15.60;;;9.55;;
77170;SDS011;66144;50.020;14.422;2023-02-28T18:21:03;14.63;;;9.30;;
77170;SDS011;66144;50.020;14.422;2023-02-28T18:23:30;19.77;;;9.75;;
77170;SDS011;66144;50.020;14.422;2023-02-28T18:25:56;17.35;;;8.65;;
77170;SDS011;66144;50.020;14.422;2023-02-28T18:28:22;16.48;;;8.27;;
77170;SDS011;66144;50.020;14.422;2023-02-28T18:30:48;15.35;;;9.07;;
77170;SDS011;66144;50.020;14.422;2023-02-28T18:33:14;17.48;;;9.32;;
77170;SDS011;66144;50.020;14.422;2023-02-28T18:35:39;17.70;;;9.73;;
77170;SDS011;66144;50.020;14.422;2023-02-28T18:40:32;15.98;;;8.40;;
77170;SDS011;66144;50.020;14.422;2023-02-28T18:42:58;17.83;;;8.65;;
77170;SDS011;66144;50.020;14.422;2023-02-28T18:45:24;18.85;;;10.05;;
77170;SDS011;66144;50.020;14.422;2023-02-28T18:47:50;15.75;;;9.25;;
77170;SDS011;66144;50.020;14.422;2023-02-28T18:50:16;19.33;;;9.45;;
77170;SDS011;66144;50.020;14.422;2023-02-28T18:52:42;17.42;;;9.20;;